createdAt,value
2018-06-12T00:01:11.360Z,5.83
2018-06-12T00:03:39.479Z,6.30
2018-06-12T00:06:08.605Z,6.47
2018-06-12T00:08:36.846Z,5.70
2018-06-12T00:11:04.935Z,5.90
2018-06-12T00:13:33.105Z,5.70
2018-06-12T00:16:01.185Z,5.37
2018-06-12T00:18:29.292Z,5.40
2018-06-12T00:20:57.376Z,5.90
2018-06-12T00:23:25.483Z,5.43
2018-06-12T00:25:53.559Z,5.90
2018-06-12T00:28:21.667Z,5.57
2018-06-12T00:30:49.756Z,6.50
2018-06-12T00:33:17.864Z,5.03
2018-06-12T00:35:45.952Z,6.27
2018-06-12T00:38:14.048Z,5.50
2018-06-12T00:40:42.136Z,5.60
2018-06-12T00:43:10.631Z,6.00
2018-06-12T00:45:38.723Z,5.00
2018-06-12T00:48:06.833Z,5.57
2018-06-12T00:50:34.951Z,5.60
2018-06-12T00:53:03.056Z,5.70
2018-06-12T00:55:31.143Z,6.30
2018-06-12T00:57:59.243Z,6.37
2018-06-12T01:00:27.332Z,6.83
2018-06-12T01:02:55.444Z,8.33
2018-06-12T01:05:23.539Z,7.50
2018-06-12T01:07:51.663Z,6.93
2018-06-12T01:10:19.748Z,6.60
2018-06-12T01:12:47.838Z,5.90
2018-06-12T01:15:15.956Z,6.70
2018-06-12T01:17:44.036Z,6.33
2018-06-12T01:20:12.168Z,6.77
2018-06-12T01:22:40.247Z,5.67
2018-06-12T01:25:08.371Z,7.63
2018-06-12T01:27:36.448Z,6.50
2018-06-12T01:30:04.592Z,6.23
2018-06-12T01:32:32.672Z,6.80
2018-06-12T01:35:00.785Z,6.00
2018-06-12T01:37:28.859Z,5.40
2018-06-12T01:39:56.959Z,5.17
2018-06-12T01:42:25.053Z,5.60
2018-06-12T01:44:53.155Z,5.50
2018-06-12T01:47:21.240Z,6.43
2018-06-12T01:49:49.347Z,5.77
2018-06-12T01:52:17.444Z,6.97
2018-06-12T01:54:45.565Z,5.90
2018-06-12T01:57:13.639Z,5.47
2018-06-12T01:59:41.736Z,6.27
2018-06-12T02:02:09.839Z,5.37
2018-06-12T02:04:37.931Z,5.53
2018-06-12T02:07:06.011Z,5.40
2018-06-12T02:09:34.111Z,5.80
2018-06-12T02:12:02.200Z,6.50
2018-06-12T02:14:30.296Z,6.27
2018-06-12T02:16:58.418Z,5.50
2018-06-12T02:19:26.521Z,5.63
2018-06-12T02:21:54.594Z,5.43
2018-06-12T02:24:22.692Z,6.63
2018-06-12T02:26:50.788Z,7.17
2018-06-12T02:29:18.884Z,8.27
2018-06-12T02:31:46.976Z,7.70
2018-06-12T02:34:15.077Z,7.50
2018-06-12T02:36:43.164Z,7.80
2018-06-12T02:39:11.260Z,8.13
2018-06-12T02:41:39.345Z,9.20
2018-06-12T02:44:07.444Z,8.40
2018-06-12T02:46:35.520Z,9.87
2018-06-12T02:49:03.635Z,9.77
2018-06-12T02:51:31.736Z,9.40
2018-06-12T02:53:59.812Z,9.87
2018-06-12T02:56:27.937Z,9.50
2018-06-12T02:58:56.036Z,8.90
2018-06-12T03:01:24.127Z,7.83
2018-06-12T03:03:52.232Z,8.47
2018-06-12T03:06:20.323Z,9.27
2018-06-12T03:08:48.404Z,9.10
2018-06-12T03:11:16.885Z,9.10
2018-06-12T03:13:44.959Z,9.40
2018-06-12T03:16:13.065Z,8.27
2018-06-12T03:18:41.147Z,8.77
2018-06-12T03:21:09.244Z,8.43
2018-06-12T03:23:37.328Z,8.10
2018-06-12T03:26:05.420Z,9.53
2018-06-12T03:28:33.604Z,10.23
2018-06-12T03:31:01.706Z,9.90
2018-06-12T03:33:29.796Z,10.43
2018-06-12T03:35:57.908Z,10.60
2018-06-12T03:38:25.999Z,12.00
2018-06-12T03:40:54.096Z,10.80
2018-06-12T03:43:22.180Z,12.47
2018-06-12T03:45:50.280Z,10.33
2018-06-12T03:48:18.360Z,10.87
2018-06-12T03:50:46.488Z,11.23
2018-06-12T03:53:14.571Z,11.20
2018-06-12T03:55:42.677Z,11.53
2018-06-12T03:58:10.786Z,12.10
2018-06-12T04:00:38.901Z,11.93
2018-06-12T04:03:07.063Z,11.57
2018-06-12T04:05:35.174Z,12.30
2018-06-12T04:08:03.268Z,12.67
2018-06-12T04:10:31.376Z,12.70
2018-06-12T04:12:59.463Z,14.10
2018-06-12T04:15:27.573Z,13.37
2018-06-12T04:17:55.682Z,13.77
2018-06-12T04:20:23.829Z,14.57
2018-06-12T04:22:51.899Z,14.97
2018-06-12T04:25:20.020Z,13.77
2018-06-12T04:27:48.118Z,14.93
2018-06-12T04:30:16.211Z,13.83
2018-06-12T04:32:44.325Z,14.67
2018-06-12T04:35:12.412Z,13.87
2018-06-12T04:37:40.520Z,12.20
2018-06-12T04:40:08.614Z,13.47
2018-06-12T04:42:36.720Z,12.77
2018-06-12T04:45:04.813Z,11.67
2018-06-12T04:47:32.924Z,12.57
2018-06-12T04:50:01.012Z,13.40
2018-06-12T04:52:29.137Z,13.27
2018-06-12T04:54:57.242Z,12.17
2018-06-12T04:57:25.443Z,12.50
2018-06-12T04:59:53.532Z,14.53
2018-06-12T05:02:21.639Z,13.10
2018-06-12T05:04:49.728Z,14.00
2018-06-12T05:07:17.836Z,13.30
2018-06-12T05:09:45.937Z,14.57
2018-06-12T05:12:14.040Z,16.30
2018-06-12T05:14:42.136Z,15.70
2018-06-12T05:17:10.253Z,15.60
2018-06-12T05:19:38.382Z,16.03
2018-06-12T05:22:06.459Z,16.20
2018-06-12T05:24:34.567Z,18.50
2018-06-12T05:27:02.672Z,19.77
2018-06-12T05:29:30.789Z,19.30
2018-06-12T05:31:58.892Z,16.63
2018-06-12T05:34:26.988Z,17.67
2018-06-12T05:36:55.097Z,18.30
2018-06-12T05:39:23.212Z,18.13
2018-06-12T05:41:51.319Z,17.83
2018-06-12T05:44:19.416Z,17.13
2018-06-12T05:46:47.529Z,15.30
2018-06-12T05:49:15.615Z,15.23
2018-06-12T05:51:43.752Z,14.80
2018-06-12T05:54:11.858Z,14.50
2018-06-12T05:56:39.963Z,14.43
2018-06-12T05:59:08.055Z,15.80
2018-06-12T06:01:36.168Z,14.50
2018-06-12T06:04:04.296Z,13.50
2018-06-12T06:06:32.407Z,14.00
2018-06-12T06:09:00.504Z,13.67
2018-06-12T06:11:28.616Z,13.60
2018-06-12T06:13:56.724Z,12.47
2018-06-12T06:16:24.819Z,12.20
2018-06-12T06:18:52.924Z,10.83
2018-06-12T06:21:21.024Z,11.67
2018-06-12T06:23:49.135Z,11.20
2018-06-12T06:26:17.236Z,11.70
2018-06-12T06:28:45.348Z,11.90
2018-06-12T06:31:13.436Z,12.47
2018-06-12T06:33:41.545Z,12.77
2018-06-12T06:36:09.685Z,11.80
2018-06-12T06:38:37.769Z,11.53
2018-06-12T06:41:05.893Z,11.20
2018-06-12T06:43:34.000Z,11.87
2018-06-12T06:46:02.096Z,11.90
2018-06-12T06:48:30.202Z,10.07
2018-06-12T06:50:58.319Z,11.43
2018-06-12T06:53:26.948Z,10.37
2018-06-12T06:55:55.044Z,10.70
2018-06-12T06:58:23.143Z,9.40
2018-06-12T07:00:51.231Z,8.73
2018-06-12T07:03:19.336Z,9.30
2018-06-12T07:05:47.420Z,8.30
2018-06-12T07:08:15.529Z,9.20
2018-06-12T07:10:43.620Z,8.77
2018-06-12T07:13:11.734Z,8.90
2018-06-12T07:15:39.821Z,8.17
2018-06-12T07:18:07.944Z,7.93
2018-06-12T07:20:41.648Z,7.80
2018-06-12T07:23:09.757Z,7.10
2018-06-12T07:25:37.863Z,6.30
2018-06-12T07:28:06.016Z,5.97
2018-06-12T07:30:34.108Z,6.17
2018-06-12T07:33:02.209Z,5.23
2018-06-12T07:35:30.300Z,6.17
2018-06-12T07:37:58.413Z,5.70
2018-06-12T07:40:26.518Z,6.00
2018-06-12T07:42:54.619Z,5.60
2018-06-12T07:45:22.700Z,4.67
2018-06-12T07:47:50.812Z,5.93
2018-06-12T07:50:18.931Z,4.73
2018-06-12T07:52:47.056Z,6.37
2018-06-12T07:55:15.144Z,5.10
2018-06-12T07:57:43.252Z,5.90
2018-06-12T08:00:11.335Z,5.03
2018-06-12T08:02:39.449Z,4.80
2018-06-12T08:05:07.163Z,5.23
2018-06-12T08:07:35.260Z,5.93
2018-06-12T08:10:03.383Z,5.53
2018-06-12T08:12:31.460Z,5.43
2018-06-12T08:14:59.573Z,5.50
2018-06-12T08:17:27.651Z,6.10
2018-06-12T08:19:55.768Z,5.83
2018-06-12T08:22:23.860Z,5.30
2018-06-12T08:24:51.969Z,6.30
2018-06-12T08:27:20.068Z,6.17
2018-06-12T08:29:48.222Z,6.30
2018-06-12T08:32:16.309Z,5.17
2018-06-12T08:34:44.408Z,5.10
2018-06-12T08:37:12.496Z,6.07
2018-06-12T08:39:40.596Z,5.57
2018-06-12T08:42:08.679Z,5.53
2018-06-12T08:44:36.784Z,5.63
2018-06-12T08:47:04.876Z,5.70
2018-06-12T08:49:32.979Z,5.60
2018-06-12T08:52:01.104Z,5.60
2018-06-12T08:54:29.204Z,4.40
2018-06-12T08:56:57.304Z,5.87
2018-06-12T08:59:25.422Z,5.83
2018-06-12T09:01:53.500Z,5.70
2018-06-12T09:04:21.604Z,6.27
2018-06-12T09:06:49.684Z,5.30
2018-06-12T09:09:17.789Z,5.43
2018-06-12T09:11:45.872Z,5.17
2018-06-12T09:14:13.967Z,4.70
2018-06-12T09:16:42.044Z,5.23
2018-06-12T09:19:10.147Z,5.80
2018-06-12T09:21:38.235Z,5.20
2018-06-12T09:24:06.332Z,5.70
2018-06-12T09:26:34.426Z,7.70
2018-06-12T09:29:02.528Z,7.07
2018-06-12T09:31:30.612Z,6.00
2018-06-12T09:33:58.719Z,5.57
2018-06-12T09:36:32.168Z,4.63
2018-06-12T09:39:00.269Z,4.50
2018-06-12T09:41:28.439Z,4.27
2018-06-12T09:43:56.531Z,3.60
2018-06-12T09:46:24.663Z,4.50
2018-06-12T09:48:52.768Z,4.07
2018-06-12T09:51:20.873Z,4.40
2018-06-12T09:53:48.956Z,4.73
2018-06-12T09:56:17.068Z,3.87
2018-06-12T09:58:45.148Z,3.60
2018-06-12T10:01:18.359Z,3.97
2018-06-12T10:03:47.168Z,3.90
2018-06-12T10:06:15.267Z,4.57
2018-06-12T10:08:43.367Z,4.27
2018-06-12T10:11:11.480Z,3.70
2018-06-12T10:13:39.580Z,3.97
2018-06-12T10:16:07.688Z,4.40
2018-06-12T10:18:35.777Z,3.80
2018-06-12T10:21:03.879Z,4.00
2018-06-12T10:23:31.964Z,4.00
2018-06-12T10:26:00.064Z,3.90
2018-06-12T10:28:28.163Z,4.10
2018-06-12T10:30:56.286Z,2.97
2018-06-12T10:33:24.381Z,4.00
2018-06-12T10:35:52.504Z,3.80
2018-06-12T10:38:20.596Z,3.40
2018-06-12T10:40:48.704Z,3.90
2018-06-12T10:43:16.794Z,3.50
2018-06-12T10:45:44.900Z,3.60
2018-06-12T10:48:13.009Z,3.80
2018-06-12T10:50:41.124Z,3.80
2018-06-12T10:53:09.204Z,4.47
2018-06-12T10:55:37.645Z,3.80
2018-06-12T10:58:05.727Z,3.50
2018-06-12T11:00:33.823Z,2.87
2018-06-12T11:03:01.910Z,3.90
2018-06-12T11:05:30.017Z,3.63
2018-06-12T11:07:58.107Z,3.93
2018-06-12T11:10:26.204Z,4.33
2018-06-12T11:12:54.283Z,3.70
2018-06-12T11:15:22.384Z,4.23
2018-06-12T11:17:50.468Z,4.03
2018-06-12T11:20:18.564Z,4.10
2018-06-12T11:22:46.648Z,3.90
2018-06-12T11:25:14.739Z,3.30
2018-06-12T11:27:42.832Z,3.80
2018-06-12T11:30:10.934Z,3.50
2018-06-12T11:32:39.008Z,4.13
2018-06-12T11:35:07.121Z,4.00
2018-06-12T11:37:35.197Z,3.97
2018-06-12T11:40:03.323Z,3.43
2018-06-12T11:42:31.436Z,2.93
2018-06-12T11:44:59.512Z,3.50
2018-06-12T11:47:27.616Z,3.50
2018-06-12T11:49:55.696Z,3.00
2018-06-12T11:52:23.849Z,3.33
2018-06-12T11:54:51.923Z,3.53
2018-06-12T11:57:20.034Z,3.87
2018-06-12T11:59:48.119Z,3.47
2018-06-12T12:02:16.212Z,3.97
2018-06-12T12:04:44.300Z,3.80
2018-06-12T12:07:12.404Z,3.50
2018-06-12T12:09:40.508Z,3.70
2018-06-12T12:12:08.621Z,3.27
2018-06-12T12:14:36.708Z,3.47
2018-06-12T12:17:04.824Z,3.20
2018-06-12T12:19:32.908Z,3.30
2018-06-12T12:22:01.013Z,3.80
2018-06-12T12:24:29.104Z,3.57
2018-06-12T12:26:57.208Z,3.97
2018-06-12T12:29:25.297Z,3.73
2018-06-12T12:31:53.400Z,4.33
2018-06-12T12:34:21.488Z,4.23
2018-06-12T12:36:49.611Z,3.83
2018-06-12T12:39:17.697Z,3.53
2018-06-12T12:41:45.805Z,4.70
2018-06-12T12:44:13.893Z,4.10
2018-06-12T12:46:41.988Z,3.70
2018-06-12T12:49:10.072Z,4.30
2018-06-12T12:51:38.272Z,4.53
2018-06-12T12:54:06.393Z,4.40
2018-06-12T12:56:34.496Z,4.03
2018-06-12T12:59:02.580Z,4.47
2018-06-12T13:01:30.688Z,4.90
2018-06-12T13:03:58.764Z,4.43
2018-06-12T13:06:26.856Z,3.87
2018-06-12T13:08:54.933Z,4.07
2018-06-12T13:11:23.028Z,3.87
2018-06-12T13:13:51.164Z,4.60
2018-06-12T13:16:19.215Z,3.60
2018-06-12T13:18:47.298Z,4.00
2018-06-12T13:21:15.405Z,4.70
2018-06-12T13:23:43.479Z,3.87
2018-06-12T13:26:11.588Z,4.43
2018-06-12T13:28:39.683Z,4.23
2018-06-12T13:31:07.763Z,4.07
2018-06-12T13:33:35.852Z,4.17
2018-06-12T13:36:03.940Z,4.20
2018-06-12T13:38:32.031Z,3.73
2018-06-12T13:41:00.144Z,4.20
2018-06-12T13:43:28.252Z,4.00
2018-06-12T13:45:56.335Z,4.00
2018-06-12T13:48:24.466Z,3.93
2018-06-12T13:50:52.559Z,3.77
2018-06-12T13:53:20.656Z,4.00
2018-06-12T13:55:48.741Z,3.67
2018-06-12T13:58:16.838Z,3.50
2018-06-12T14:00:44.912Z,3.50
2018-06-12T14:03:13.016Z,4.20
2018-06-12T14:05:41.094Z,3.57
2018-06-12T14:08:09.196Z,3.87
2018-06-12T14:10:37.289Z,3.30
2018-06-12T14:13:05.393Z,3.33
2018-06-12T14:15:33.475Z,3.57
2018-06-12T14:18:01.576Z,3.57
2018-06-12T14:20:29.664Z,3.70
2018-06-12T14:22:57.800Z,3.60
2018-06-12T14:25:25.892Z,4.00
2018-06-12T14:27:53.988Z,4.13
2018-06-12T14:30:22.429Z,3.90
2018-06-12T14:32:50.527Z,3.23
2018-06-12T14:35:18.613Z,3.70
2018-06-12T14:37:46.726Z,4.10
2018-06-12T14:40:14.807Z,3.83
2018-06-12T14:42:42.923Z,4.63
2018-06-12T14:45:11.003Z,3.77
2018-06-12T14:47:39.105Z,4.07
2018-06-12T14:50:07.211Z,4.70
2018-06-12T14:52:35.356Z,3.73
2018-06-12T14:55:03.449Z,4.33
2018-06-12T14:57:31.560Z,4.33
2018-06-12T14:59:59.649Z,4.37
2018-06-12T15:02:27.744Z,3.87
2018-06-12T15:04:55.827Z,2.10
2018-06-12T15:07:23.929Z,1.20
2018-06-12T15:09:52.011Z,0.90
2018-06-12T15:12:20.097Z,1.57
2018-06-12T15:14:48.200Z,1.70
2018-06-12T15:17:16.296Z,1.80
2018-06-12T15:19:44.408Z,1.80
2018-06-12T15:22:12.500Z,2.90
2018-06-12T15:24:40.608Z,2.30
2018-06-12T15:27:08.697Z,2.03
2018-06-12T15:29:36.811Z,2.83
2018-06-12T15:32:05.005Z,3.00
2018-06-12T15:34:33.116Z,2.30
2018-06-12T15:39:35.833Z,1.80
2018-06-12T15:42:03.926Z,1.83
2018-06-12T15:44:32.049Z,1.80
2018-06-12T15:47:00.150Z,2.23
2018-06-12T15:49:28.264Z,2.17
2018-06-12T15:51:56.367Z,1.47
2018-06-12T15:54:24.487Z,1.70
2018-06-12T15:56:52.555Z,1.60
2018-06-12T15:59:20.654Z,1.50
2018-06-12T16:01:48.769Z,1.40
2018-06-12T16:04:16.884Z,1.50
2018-06-12T16:06:44.968Z,1.60
2018-06-12T16:09:13.069Z,1.90
2018-06-12T16:11:41.147Z,1.70
2018-06-12T16:14:09.231Z,1.73
2018-06-12T16:16:37.344Z,1.80
2018-06-12T16:19:06.285Z,2.53
2018-06-12T16:21:34.371Z,1.80
2018-06-12T16:24:02.466Z,2.70
2018-06-12T16:26:30.548Z,2.40
2018-06-12T16:28:58.640Z,1.93
2018-06-12T16:31:26.714Z,1.60
2018-06-12T16:33:54.816Z,1.50
2018-06-12T16:36:22.896Z,1.73
2018-06-12T16:38:51.016Z,1.70
2018-06-12T16:41:19.147Z,1.43
2018-06-12T16:43:47.221Z,1.90
2018-06-12T16:46:15.891Z,1.73
2018-06-12T16:48:44.032Z,1.77
2018-06-12T16:51:12.264Z,1.63
2018-06-12T16:53:40.397Z,2.40
2018-06-12T16:56:08.488Z,2.30
2018-06-12T16:58:36.571Z,2.10
2018-06-12T17:01:04.688Z,2.37
2018-06-12T17:03:32.788Z,2.43
2018-06-12T17:06:00.888Z,2.10
2018-06-12T17:08:28.963Z,2.33
2018-06-12T17:10:57.073Z,2.43
2018-06-12T17:13:25.172Z,2.10
2018-06-12T17:15:53.268Z,2.47
2018-06-12T17:18:21.357Z,2.13
2018-06-12T17:20:49.454Z,2.10
2018-06-12T17:23:17.531Z,2.10
2018-06-12T17:25:45.651Z,2.50
2018-06-12T17:28:13.748Z,2.67
2018-06-12T17:30:41.904Z,2.60
2018-06-12T17:33:10.005Z,2.53
2018-06-12T17:35:38.092Z,2.13
2018-06-12T17:38:06.172Z,1.90
2018-06-12T17:40:34.259Z,1.70
2018-06-12T17:43:02.348Z,1.83
2018-06-12T17:45:30.444Z,1.87
2018-06-12T17:47:58.536Z,2.10
2018-06-12T17:50:26.659Z,1.70
2018-06-12T17:52:54.779Z,1.83
2018-06-12T17:55:22.891Z,1.90
2018-06-12T17:57:50.980Z,1.73
2018-06-12T18:00:19.120Z,1.93
2018-06-12T18:02:47.213Z,1.50
2018-06-12T18:05:15.331Z,2.10
2018-06-12T18:07:43.424Z,1.90
2018-06-12T18:10:11.554Z,1.90
2018-06-12T18:12:39.648Z,1.90
2018-06-12T18:15:07.752Z,2.40
2018-06-12T18:17:35.849Z,1.80
2018-06-12T18:20:03.955Z,2.02
2018-06-12T18:22:32.083Z,2.10
2018-06-12T18:25:00.216Z,1.77
2018-06-12T18:27:28.295Z,2.20
2018-06-12T18:29:56.416Z,2.20
2018-06-12T18:32:24.551Z,2.53
2018-06-12T18:34:52.672Z,2.50
2018-06-12T18:37:20.796Z,2.33
2018-06-12T18:39:48.888Z,2.40
2018-06-12T18:42:16.984Z,1.90
2018-06-12T18:44:45.067Z,2.13
2018-06-12T18:47:13.176Z,2.50
2018-06-12T18:49:41.263Z,2.20
2018-06-12T18:52:09.488Z,2.30
2018-06-12T18:54:37.633Z,2.20
2018-06-12T18:57:05.756Z,2.37
2018-06-12T18:59:33.891Z,2.30
2018-06-12T19:02:02.090Z,2.00
2018-06-12T19:04:30.256Z,2.30
2018-06-12T19:06:58.563Z,2.50
2018-06-12T19:09:26.806Z,1.80
2018-06-12T19:11:55.092Z,2.17
2018-06-12T19:14:23.175Z,2.13
2018-06-12T19:16:51.559Z,1.77
2018-06-12T19:19:19.719Z,2.30
2018-06-12T19:21:47.868Z,2.47
2018-06-12T19:24:15.992Z,2.23
2018-06-12T19:26:44.212Z,2.87
2018-06-12T19:29:12.442Z,3.60
2018-06-12T19:31:40.717Z,3.43
2018-06-12T19:34:08.809Z,3.80
2018-06-12T19:36:36.956Z,4.27
2018-06-12T19:39:06.129Z,3.67
2018-06-12T19:41:34.269Z,5.10
2018-06-12T19:44:02.364Z,6.73
2018-06-12T19:46:30.459Z,5.33
2018-06-12T19:48:58.548Z,5.83
2018-06-12T19:51:26.671Z,6.87
2018-06-12T19:53:54.769Z,5.90
2018-06-12T19:56:22.876Z,5.47
2018-06-12T19:58:50.955Z,5.70
2018-06-12T20:01:19.314Z,5.23
2018-06-12T20:03:47.466Z,5.00
2018-06-12T20:06:16.307Z,4.50
2018-06-12T20:08:44.905Z,5.50
2018-06-12T20:11:19.823Z,5.53
2018-06-12T20:13:49.986Z,5.30
2018-06-12T20:16:19.171Z,5.90
2018-06-12T20:18:50.124Z,5.30
2018-06-12T20:21:18.333Z,6.03
2018-06-12T20:23:46.549Z,6.07
2018-06-12T20:26:14.668Z,5.10
2018-06-12T20:28:42.758Z,4.60
2018-06-12T20:31:10.840Z,4.70
2018-06-12T20:33:38.935Z,5.23
2018-06-12T20:36:07.081Z,4.80
2018-06-12T20:38:35.134Z,4.70
2018-06-12T20:41:03.252Z,6.17
2018-06-12T20:43:31.363Z,6.27
2018-06-12T20:45:59.456Z,6.27
2018-06-12T20:48:27.552Z,6.07
2018-06-12T20:50:55.656Z,5.83
2018-06-12T20:53:23.751Z,5.50
2018-06-12T20:55:51.865Z,5.90
2018-06-12T20:58:19.968Z,5.17
2018-06-12T21:00:48.054Z,5.23
2018-06-12T21:03:16.159Z,5.00
2018-06-12T21:05:44.241Z,5.47
2018-06-12T21:08:12.340Z,5.50
2018-06-12T21:10:40.460Z,4.97
2018-06-12T21:13:08.556Z,4.50
2018-06-12T21:15:36.636Z,4.97
2018-06-12T21:18:04.724Z,4.17
2018-06-12T21:20:32.808Z,3.13
2018-06-12T21:23:00.926Z,3.40
2018-06-12T21:25:29.016Z,4.23
2018-06-12T21:27:57.108Z,4.30
2018-06-12T21:30:25.267Z,3.93
2018-06-12T21:32:53.355Z,4.77
2018-06-12T21:35:21.435Z,4.50
2018-06-12T21:37:49.528Z,4.00
2018-06-12T21:40:17.609Z,4.00
2018-06-12T21:42:45.712Z,3.93
2018-06-12T21:45:13.792Z,4.00
2018-06-12T21:47:41.875Z,4.27
2018-06-12T21:50:09.976Z,4.00
2018-06-12T21:52:38.081Z,4.70
2018-06-12T21:55:06.169Z,3.90
2018-06-12T21:57:34.277Z,3.60
2018-06-12T22:00:02.361Z,3.43
2018-06-12T22:02:30.896Z,3.00
2018-06-12T22:04:59.267Z,3.40
2018-06-12T22:07:27.414Z,3.60
2018-06-12T22:09:55.585Z,2.87
2018-06-12T22:12:23.677Z,2.73
2018-06-12T22:14:51.776Z,3.10
2018-06-12T22:17:19.865Z,2.57
2018-06-12T22:19:54.903Z,2.87
2018-06-12T22:22:22.993Z,2.60
2018-06-12T22:24:51.096Z,3.70
2018-06-12T22:27:19.184Z,2.93
2018-06-12T22:29:47.328Z,2.90
2018-06-12T22:32:15.420Z,2.63
2018-06-12T22:34:43.536Z,3.00
2018-06-12T22:37:11.616Z,3.50
2018-06-12T22:39:39.720Z,3.20
2018-06-12T22:42:07.804Z,3.20
2018-06-12T22:44:35.924Z,2.80
2018-06-12T22:47:04.295Z,3.23
2018-06-12T22:49:32.411Z,2.90
2018-06-12T22:52:00.512Z,2.53
2018-06-12T22:54:28.606Z,3.30
2018-06-12T22:56:56.685Z,3.33
2018-06-12T22:59:24.776Z,3.60
2018-06-12T23:01:52.847Z,3.63
2018-06-12T23:04:20.936Z,3.97
2018-06-12T23:06:49.015Z,4.00
2018-06-12T23:09:17.112Z,4.70
2018-06-12T23:11:45.188Z,4.43
2018-06-12T23:14:13.323Z,5.10
2018-06-12T23:16:41.459Z,5.17
2018-06-12T23:19:09.535Z,6.10
2018-06-12T23:21:43.236Z,7.30
2018-06-12T23:24:11.368Z,8.07
2018-06-12T23:26:39.455Z,7.33
2018-06-12T23:29:07.551Z,7.60
2018-06-12T23:31:35.635Z,6.60
2018-06-12T23:34:03.743Z,6.63
2018-06-12T23:36:31.836Z,6.53
2018-06-12T23:38:59.952Z,7.00
2018-06-12T23:41:28.047Z,6.13
2018-06-12T23:43:56.144Z,6.00
2018-06-12T23:46:24.226Z,5.60
2018-06-12T23:48:52.331Z,6.07
2018-06-12T23:51:20.440Z,5.67
2018-06-12T23:53:48.544Z,5.20
2018-06-12T23:56:16.653Z,6.13
2018-06-12T23:58:44.743Z,5.33
